IGO831 VCBI-VOBL
Flight info
| Callsign | IGO831 |
|---|---|
| Flight time | 1h 8m |
| Altitude | 36000 |
| Route | ATETA1D ATETA T4 TTR W42 ADKAL ADKAL7E |
| Aircraft | A21N/M-SDE2E3FGHIRWXY/LB1 |
Departure
| Time | 2026-04-25 12:50 |
|---|---|
| Airport | Bandaranaike International Colombo Airport (VCBI) |
Arrival
| Time | 2026-04-25 13:59 |
|---|---|
| Airport | Kempegowda International Airport Bengaluru (VOBL) |
| Time | Latitude | Longitude | Altitude | Speed | Heading |
|---|---|---|---|---|---|
| 2026-04-25 12:24 | 7.17540 | 79.88518 | 48 ft | 0 kts | 37° |
| 2026-04-25 12:38 | 7.17536 | 79.88514 | 48 ft | 2 kts | 37° |
| 2026-04-25 12:38 | 7.17524 | 79.88505 | 48 ft | 2 kts | 37° |
| 2026-04-25 12:38 | 7.17512 | 79.88496 | 48 ft | 2 kts | 37° |
| 2026-04-25 12:39 | 7.17504 | 79.88490 | 48 ft | 2 kts | 37° |
| 2026-04-25 12:39 | 7.17491 | 79.88483 | 48 ft | 2 kts | 9° |
| 2026-04-25 12:39 | 7.17476 | 79.88483 | 48 ft | 2 kts | 349° |
| 2026-04-25 12:39 | 7.17462 | 79.88488 | 48 ft | 2 kts | 328° |
| 2026-04-25 12:40 | 7.17452 | 79.88496 | 48 ft | 0 kts | 309° |
| 2026-04-25 12:40 | 7.17448 | 79.88502 | 48 ft | 1 kts | 306° |
| 2026-04-25 12:42 | 7.17454 | 79.88494 | 48 ft | 3 kts | 307° |
| 2026-04-25 12:42 | 7.17477 | 79.88464 | 47 ft | 7 kts | 307° |
| 2026-04-25 12:43 | 7.17518 | 79.88409 | 46 ft | 11 kts | 306° |
| 2026-04-25 12:43 | 7.17574 | 79.88335 | 45 ft | 15 kts | 307° |
| 2026-04-25 12:43 | 7.17733 | 79.88311 | 44 ft | 15 kts | 38° |
| 2026-04-25 12:44 | 7.17822 | 79.88380 | 46 ft | 16 kts | 38° |
| 2026-04-25 12:44 | 7.17920 | 79.88456 | 45 ft | 18 kts | 38° |
| 2026-04-25 12:44 | 7.18141 | 79.88627 | 47 ft | 20 kts | 39° |
| 2026-04-25 12:45 | 7.18255 | 79.88716 | 47 ft | 21 kts | 38° |
| 2026-04-25 12:45 | 7.18379 | 79.88812 | 47 ft | 22 kts | 38° |
| 2026-04-25 12:45 | 7.18640 | 79.89014 | 46 ft | 24 kts | 38° |
| 2026-04-25 12:46 | 7.18782 | 79.89125 | 43 ft | 26 kts | 38° |
| 2026-04-25 12:46 | 7.18930 | 79.89240 | 42 ft | 27 kts | 38° |
| 2026-04-25 12:46 | 7.19080 | 79.89356 | 41 ft | 25 kts | 38° |
| 2026-04-25 12:46 | 7.19171 | 79.89425 | 39 ft | 14 kts | 21° |
| 2026-04-25 12:47 | 7.19230 | 79.89401 | 40 ft | 0 kts | 304° |
| 2026-04-25 12:48 | 7.19230 | 79.89400 | 40 ft | 0 kts | 304° |
| 2026-04-25 12:48 | 7.19234 | 79.89395 | 40 ft | 1 kts | 304° |
| 2026-04-25 12:48 | 7.19245 | 79.89380 | 40 ft | 4 kts | 306° |
| 2026-04-25 12:48 | 7.19268 | 79.89348 | 41 ft | 7 kts | 306° |
| 2026-04-25 12:49 | 7.19286 | 79.89296 | 43 ft | 9 kts | 248° |
| 2026-04-25 12:49 | 7.19231 | 79.89244 | 44 ft | 7 kts | 217° |
| 2026-04-25 12:49 | 7.19146 | 79.89180 | 44 ft | 38 kts | 217° |
| 2026-04-25 12:49 | 7.18735 | 79.88861 | 46 ft | 107 kts | 217° |
| 2026-04-25 12:50 | 7.17988 | 79.88282 | 45 ft | 163 kts | 218° |
| 2026-04-25 12:50 | 7.17057 | 79.87560 | 504 ft | 170 kts | 219° |
| 2026-04-25 12:50 | 7.16249 | 79.86730 | 968 ft | 169 kts | 247° |
| 2026-04-25 12:50 | 7.16230 | 79.85571 | 1409 ft | 169 kts | 283° |
| 2026-04-25 12:51 | 7.16552 | 79.84447 | 1815 ft | 173 kts | 284° |
| 2026-04-25 12:51 | 7.16865 | 79.83233 | 2087 ft | 186 kts | 282° |
| 2026-04-25 12:51 | 7.17221 | 79.81917 | 2364 ft | 202 kts | 292° |
| 2026-04-25 12:51 | 7.18081 | 79.80759 | 2636 ft | 217 kts | 320° |
| 2026-04-25 12:52 | 7.19495 | 79.80086 | 2882 ft | 234 kts | 351° |
| 2026-04-25 12:52 | 7.21150 | 79.80216 | 3146 ft | 250 kts | 22° |
| 2026-04-25 12:52 | 7.22664 | 79.81190 | 3584 ft | 263 kts | 39° |
| 2026-04-25 12:52 | 7.24113 | 79.82337 | 4237 ft | 267 kts | 39° |
| 2026-04-25 12:53 | 7.25569 | 79.83476 | 4988 ft | 268 kts | 39° |
| 2026-04-25 12:53 | 7.27036 | 79.84615 | 5727 ft | 269 kts | 39° |
| 2026-04-25 12:53 | 7.28514 | 79.85757 | 6487 ft | 270 kts | 39° |
| 2026-04-25 12:53 | 7.30004 | 79.86909 | 7201 ft | 272 kts | 38° |
| 2026-04-25 12:54 | 7.31520 | 79.88078 | 7860 ft | 276 kts | 38° |
| 2026-04-25 12:54 | 7.33061 | 79.89265 | 8474 ft | 280 kts | 38° |
| 2026-04-25 12:54 | 7.34617 | 79.90424 | 9077 ft | 284 kts | 32° |
| 2026-04-25 12:54 | 7.36452 | 79.91214 | 9675 ft | 289 kts | 15° |
| 2026-04-25 12:55 | 7.38460 | 79.91446 | 10277 ft | 292 kts | 4° |
| 2026-04-25 12:55 | 7.39852 | 79.91486 | 10545 ft | 300 kts | 2° |
| 2026-04-25 12:55 | 7.42719 | 79.91536 | 10970 ft | 316 kts | 2° |
| 2026-04-25 12:55 | 7.44931 | 79.91579 | 11486 ft | 321 kts | 2° |
| 2026-04-25 12:56 | 7.47178 | 79.91631 | 12044 ft | 323 kts | 3° |
| 2026-04-25 12:56 | 7.49456 | 79.91687 | 12577 ft | 327 kts | 3° |
| 2026-04-25 12:56 | 7.51740 | 79.91748 | 13089 ft | 330 kts | 3° |
| 2026-04-25 12:56 | 7.54033 | 79.91809 | 13593 ft | 333 kts | 3° |
| 2026-04-25 12:57 | 7.56387 | 79.91872 | 14107 ft | 336 kts | 3° |
| 2026-04-25 12:57 | 7.58727 | 79.91933 | 14606 ft | 338 kts | 3° |
| 2026-04-25 12:57 | 7.61083 | 79.91996 | 15099 ft | 341 kts | 3° |
| 2026-04-25 12:57 | 7.63467 | 79.92059 | 15582 ft | 343 kts | 3° |
| 2026-04-25 12:58 | 7.65863 | 79.92124 | 16055 ft | 345 kts | 2° |
| 2026-04-25 12:58 | 7.68286 | 79.92191 | 16511 ft | 348 kts | 2° |
| 2026-04-25 12:58 | 7.70708 | 79.92256 | 16958 ft | 350 kts | 3° |
| 2026-04-25 12:58 | 7.73181 | 79.92321 | 17407 ft | 353 kts | 3° |
| 2026-04-25 12:59 | 7.75646 | 79.92388 | 17842 ft | 355 kts | 3° |
| 2026-04-25 12:59 | 7.78123 | 79.92454 | 18263 ft | 358 kts | 3° |
| 2026-04-25 12:59 | 7.80632 | 79.92523 | 18683 ft | 360 kts | 3° |
| 2026-04-25 12:59 | 7.83164 | 79.92591 | 19095 ft | 362 kts | 2° |
| 2026-04-25 13:00 | 7.85707 | 79.92546 | 19494 ft | 365 kts | 358° |
| 2026-04-25 13:00 | 7.86540 | 79.92485 | 19626 ft | 366 kts | 356° |
| 2026-04-25 13:00 | 7.90777 | 79.91843 | 20284 ft | 371 kts | 351° |
| 2026-04-25 13:00 | 7.93341 | 79.91345 | 20664 ft | 373 kts | 351° |
| 2026-04-25 13:01 | 7.95874 | 79.90847 | 21024 ft | 376 kts | 351° |
| 2026-04-25 13:01 | 7.98472 | 79.90340 | 21389 ft | 378 kts | 351° |
| 2026-04-25 13:01 | 8.01076 | 79.89832 | 21739 ft | 381 kts | 351° |
| 2026-04-25 13:01 | 8.03707 | 79.89323 | 22084 ft | 383 kts | 351° |
| 2026-04-25 13:02 | 8.06316 | 79.88820 | 22455 ft | 385 kts | 351° |
| 2026-04-25 13:02 | 8.08964 | 79.88309 | 22832 ft | 386 kts | 351° |
| 2026-04-25 13:02 | 8.11641 | 79.87794 | 23182 ft | 388 kts | 350° |
| 2026-04-25 13:02 | 8.14282 | 79.87286 | 23514 ft | 391 kts | 350° |
| 2026-04-25 13:03 | 8.16967 | 79.86768 | 23830 ft | 393 kts | 350° |
| 2026-04-25 13:03 | 8.19679 | 79.86248 | 24146 ft | 396 kts | 350° |
| 2026-04-25 13:03 | 8.22401 | 79.85731 | 24455 ft | 399 kts | 350° |
| 2026-04-25 13:03 | 8.25141 | 79.85212 | 24765 ft | 401 kts | 350° |
| 2026-04-25 13:04 | 8.27921 | 79.84684 | 25074 ft | 404 kts | 350° |
| 2026-04-25 13:04 | 8.30673 | 79.84161 | 25366 ft | 406 kts | 350° |
| 2026-04-25 13:04 | 8.33467 | 79.83630 | 25659 ft | 409 kts | 350° |
| 2026-04-25 13:04 | 8.36267 | 79.83097 | 25947 ft | 411 kts | 350° |
| 2026-04-25 13:05 | 8.39114 | 79.82555 | 26242 ft | 414 kts | 349° |
| 2026-04-25 13:05 | 8.41959 | 79.82013 | 26536 ft | 416 kts | 349° |
| 2026-04-25 13:05 | 8.44793 | 79.81473 | 26816 ft | 418 kts | 349° |
| 2026-04-25 13:05 | 8.47678 | 79.80924 | 27109 ft | 420 kts | 349° |
| 2026-04-25 13:06 | 8.50569 | 79.80373 | 27386 ft | 422 kts | 349° |
| 2026-04-25 13:06 | 8.53479 | 79.79820 | 27665 ft | 424 kts | 349° |
| 2026-04-25 13:06 | 8.56374 | 79.79268 | 27941 ft | 426 kts | 349° |
| 2026-04-25 13:06 | 8.59288 | 79.78713 | 28210 ft | 429 kts | 349° |
| 2026-04-25 13:07 | 8.62267 | 79.78144 | 28484 ft | 431 kts | 349° |
| 2026-04-25 13:07 | 8.65204 | 79.77584 | 28747 ft | 433 kts | 349° |
| 2026-04-25 13:07 | 8.68197 | 79.77013 | 29018 ft | 435 kts | 349° |
| 2026-04-25 13:07 | 8.71156 | 79.76448 | 29301 ft | 437 kts | 349° |
| 2026-04-25 13:08 | 8.74174 | 79.75872 | 29585 ft | 438 kts | 349° |
| 2026-04-25 13:08 | 8.77195 | 79.75295 | 29857 ft | 440 kts | 349° |
| 2026-04-25 13:08 | 8.80196 | 79.74722 | 30113 ft | 442 kts | 349° |
| 2026-04-25 13:08 | 8.83247 | 79.74140 | 30386 ft | 443 kts | 349° |
| 2026-04-25 13:09 | 8.86260 | 79.73566 | 30658 ft | 445 kts | 349° |
| 2026-04-25 13:09 | 8.89344 | 79.72977 | 30907 ft | 447 kts | 349° |
| 2026-04-25 13:09 | 8.92403 | 79.72392 | 31156 ft | 448 kts | 349° |
| 2026-04-25 13:09 | 8.95487 | 79.71803 | 31413 ft | 450 kts | 349° |
| 2026-04-25 13:10 | 8.98584 | 79.71212 | 31658 ft | 452 kts | 349° |
| 2026-04-25 13:10 | 9.01650 | 79.70626 | 31893 ft | 454 kts | 349° |
| 2026-04-25 13:10 | 9.04777 | 79.70029 | 32125 ft | 456 kts | 349° |
| 2026-04-25 13:10 | 9.06387 | 79.69720 | 32239 ft | 457 kts | 349° |
| 2026-04-25 13:11 | 9.08789 | 79.69263 | 32446 ft | 458 kts | 348° |
| 2026-04-25 13:11 | 9.11939 | 79.68662 | 32735 ft | 458 kts | 348° |
| 2026-04-25 13:11 | 9.15080 | 79.68063 | 33012 ft | 459 kts | 348° |
| 2026-04-25 13:11 | 9.18222 | 79.67464 | 33269 ft | 461 kts | 348° |
| 2026-04-25 13:12 | 9.21386 | 79.66858 | 33503 ft | 463 kts | 348° |
| 2026-04-25 13:12 | 9.24574 | 79.66194 | 33749 ft | 464 kts | 346° |
| 2026-04-25 13:12 | 9.27680 | 79.65360 | 34077 ft | 463 kts | 342° |
| 2026-04-25 13:12 | 9.29721 | 79.64697 | 34286 ft | 463 kts | 340° |
| 2026-04-25 13:13 | 9.33755 | 79.63094 | 34639 ft | 464 kts | 334° |
| 2026-04-25 13:13 | 9.36643 | 79.61687 | 34877 ft | 464 kts | 331° |
| 2026-04-25 13:13 | 9.39451 | 79.60090 | 35138 ft | 464 kts | 327° |
| 2026-04-25 13:13 | 9.42202 | 79.58367 | 35394 ft | 465 kts | 326° |
| 2026-04-25 13:14 | 9.44963 | 79.56609 | 35628 ft | 466 kts | 326° |
| 2026-04-25 13:14 | 9.47694 | 79.54866 | 35822 ft | 467 kts | 326° |
| 2026-04-25 13:14 | 9.53224 | 79.51343 | 35838 ft | 468 kts | 326° |
| 2026-04-25 13:15 | 9.58760 | 79.47826 | 35845 ft | 468 kts | 326° |
| 2026-04-25 13:15 | 9.64260 | 79.44334 | 35844 ft | 468 kts | 326° |
| 2026-04-25 13:16 | 9.69804 | 79.40814 | 35846 ft | 468 kts | 326° |
| 2026-04-25 13:16 | 9.75310 | 79.37318 | 35846 ft | 469 kts | 326° |
| 2026-04-25 13:17 | 9.80879 | 79.33774 | 35852 ft | 469 kts | 325° |
| 2026-04-25 13:17 | 9.86380 | 79.30248 | 35852 ft | 469 kts | 325° |
| 2026-04-25 13:18 | 9.91894 | 79.26727 | 35850 ft | 469 kts | 326° |
| 2026-04-25 13:18 | 9.97437 | 79.23198 | 35845 ft | 469 kts | 326° |
| 2026-04-25 13:19 | 10.02992 | 79.19661 | 35847 ft | 469 kts | 325° |
| 2026-04-25 13:19 | 10.07596 | 79.16730 | 35835 ft | 469 kts | 325° |
| 2026-04-25 13:20 | 10.14042 | 79.12637 | 35830 ft | 469 kts | 326° |
| 2026-04-25 13:20 | 10.19574 | 79.09131 | 35837 ft | 469 kts | 325° |
| 2026-04-25 13:21 | 10.25100 | 79.05615 | 35834 ft | 469 kts | 325° |
| 2026-04-25 13:21 | 10.30626 | 79.02092 | 35838 ft | 469 kts | 325° |
| 2026-04-25 13:22 | 10.36190 | 78.98543 | 35842 ft | 469 kts | 325° |
| 2026-04-25 13:23 | 10.44482 | 78.93253 | 35842 ft | 469 kts | 325° |
| 2026-04-25 13:23 | 10.50001 | 78.89726 | 35846 ft | 469 kts | 325° |
| 2026-04-25 13:24 | 10.55537 | 78.86188 | 35853 ft | 469 kts | 325° |
| 2026-04-25 13:24 | 10.61070 | 78.82652 | 35849 ft | 469 kts | 325° |
| 2026-04-25 13:25 | 10.66578 | 78.79127 | 35846 ft | 468 kts | 325° |
| 2026-04-25 13:25 | 10.72094 | 78.75597 | 35840 ft | 468 kts | 325° |
| 2026-04-25 13:26 | 10.77785 | 78.72320 | 35839 ft | 471 kts | 331° |
| 2026-04-25 13:26 | 10.83843 | 78.69643 | 35840 ft | 472 kts | 335° |
| 2026-04-25 13:27 | 10.89948 | 78.67150 | 35838 ft | 473 kts | 336° |
| 2026-04-25 13:27 | 10.96053 | 78.64655 | 35831 ft | 472 kts | 335° |
| 2026-04-25 13:28 | 11.02166 | 78.62144 | 35832 ft | 473 kts | 335° |
| 2026-04-25 13:28 | 11.08250 | 78.59642 | 35837 ft | 473 kts | 335° |
| 2026-04-25 13:29 | 11.14340 | 78.57141 | 35842 ft | 472 kts | 335° |
| 2026-04-25 13:29 | 11.20457 | 78.54633 | 35853 ft | 472 kts | 335° |
| 2026-04-25 13:30 | 11.29576 | 78.50879 | 35859 ft | 472 kts | 335° |
| 2026-04-25 13:31 | 11.38738 | 78.47099 | 35871 ft | 473 kts | 335° |
| 2026-04-25 13:31 | 11.44869 | 78.44570 | 35882 ft | 473 kts | 335° |
| 2026-04-25 13:32 | 11.50934 | 78.42065 | 35893 ft | 472 kts | 335° |
| 2026-04-25 13:32 | 11.57029 | 78.39546 | 35897 ft | 472 kts | 335° |
| 2026-04-25 13:33 | 11.63133 | 78.37023 | 35906 ft | 472 kts | 335° |
| 2026-04-25 13:33 | 11.66192 | 78.35757 | 35764 ft | 473 kts | 335° |
| 2026-04-25 13:33 | 11.69219 | 78.34502 | 35474 ft | 471 kts | 335° |
| 2026-04-25 13:33 | 11.71250 | 78.33652 | 35283 ft | 468 kts | 335° |
| 2026-04-25 13:34 | 11.75250 | 78.31979 | 34904 ft | 465 kts | 335° |
| 2026-04-25 13:34 | 11.78239 | 78.30734 | 34558 ft | 464 kts | 335° |
| 2026-04-25 13:34 | 11.81238 | 78.29489 | 34070 ft | 465 kts | 335° |
| 2026-04-25 13:34 | 11.84241 | 78.28245 | 33472 ft | 466 kts | 335° |
| 2026-04-25 13:35 | 11.87233 | 78.27022 | 32995 ft | 462 kts | 336° |
| 2026-04-25 13:35 | 11.90227 | 78.25818 | 32559 ft | 458 kts | 336° |
| 2026-04-25 13:35 | 11.93201 | 78.24625 | 32119 ft | 455 kts | 336° |
| 2026-04-25 13:35 | 11.96142 | 78.23449 | 31676 ft | 451 kts | 336° |
| 2026-04-25 13:36 | 11.99034 | 78.22290 | 31243 ft | 448 kts | 336° |
| 2026-04-25 13:36 | 12.01915 | 78.21133 | 30816 ft | 443 kts | 336° |
| 2026-04-25 13:36 | 12.04775 | 78.19983 | 30406 ft | 439 kts | 336° |
| 2026-04-25 13:36 | 12.07630 | 78.18835 | 29987 ft | 435 kts | 336° |
| 2026-04-25 13:37 | 12.10426 | 78.17712 | 29570 ft | 431 kts | 336° |
| 2026-04-25 13:37 | 12.13237 | 78.16586 | 29156 ft | 427 kts | 337° |
| 2026-04-25 13:37 | 12.15976 | 78.15490 | 28755 ft | 424 kts | 337° |
| 2026-04-25 13:37 | 12.18732 | 78.14385 | 28350 ft | 420 kts | 337° |
| 2026-04-25 13:38 | 12.21419 | 78.13306 | 27927 ft | 417 kts | 337° |
| 2026-04-25 13:38 | 12.24123 | 78.12219 | 27494 ft | 414 kts | 337° |
| 2026-04-25 13:38 | 12.26804 | 78.11140 | 27046 ft | 411 kts | 337° |
| 2026-04-25 13:38 | 12.29454 | 78.10072 | 26599 ft | 409 kts | 338° |
| 2026-04-25 13:39 | 12.32091 | 78.09011 | 26156 ft | 407 kts | 338° |
| 2026-04-25 13:39 | 12.34729 | 78.07948 | 25770 ft | 403 kts | 338° |
| 2026-04-25 13:39 | 12.37345 | 78.06895 | 25355 ft | 400 kts | 338° |
| 2026-04-25 13:39 | 12.39906 | 78.05862 | 24944 ft | 397 kts | 338° |
| 2026-04-25 13:40 | 12.42467 | 78.04829 | 24530 ft | 395 kts | 338° |
| 2026-04-25 13:40 | 12.45034 | 78.03794 | 24104 ft | 393 kts | 338° |
| 2026-04-25 13:40 | 12.47553 | 78.02778 | 23679 ft | 390 kts | 338° |
| 2026-04-25 13:40 | 12.50082 | 78.01757 | 23233 ft | 389 kts | 338° |
| 2026-04-25 13:41 | 12.52598 | 78.00742 | 22799 ft | 387 kts | 338° |
| 2026-04-25 13:41 | 12.55101 | 77.99732 | 22339 ft | 386 kts | 338° |
| 2026-04-25 13:41 | 12.57617 | 77.98716 | 21903 ft | 384 kts | 339° |
| 2026-04-25 13:41 | 12.60079 | 77.97723 | 21486 ft | 382 kts | 339° |
| 2026-04-25 13:42 | 12.62565 | 77.96719 | 21064 ft | 380 kts | 339° |
| 2026-04-25 13:42 | 12.65011 | 77.95731 | 20666 ft | 378 kts | 339° |
| 2026-04-25 13:42 | 12.67436 | 77.94751 | 20266 ft | 375 kts | 339° |
| 2026-04-25 13:42 | 12.69864 | 77.93770 | 19873 ft | 372 kts | 339° |
| 2026-04-25 13:43 | 12.72272 | 77.92796 | 19476 ft | 370 kts | 339° |
| 2026-04-25 13:43 | 12.74672 | 77.91827 | 19080 ft | 368 kts | 339° |
| 2026-04-25 13:43 | 12.77063 | 77.90859 | 18675 ft | 365 kts | 339° |
| 2026-04-25 13:43 | 12.79396 | 77.89916 | 18283 ft | 363 kts | 339° |
| 2026-04-25 13:44 | 12.81744 | 77.88966 | 17886 ft | 361 kts | 339° |
| 2026-04-25 13:44 | 12.84075 | 77.88023 | 17484 ft | 359 kts | 339° |
| 2026-04-25 13:44 | 12.86414 | 77.87076 | 17083 ft | 356 kts | 339° |
| 2026-04-25 13:44 | 12.88706 | 77.86149 | 16706 ft | 354 kts | 339° |
| 2026-04-25 13:45 | 12.90980 | 77.85230 | 16330 ft | 351 kts | 339° |
| 2026-04-25 13:45 | 12.93258 | 77.84309 | 15941 ft | 349 kts | 339° |
| 2026-04-25 13:45 | 12.95519 | 77.83395 | 15547 ft | 347 kts | 340° |
| 2026-04-25 13:45 | 12.97759 | 77.82489 | 15152 ft | 344 kts | 340° |
| 2026-04-25 13:46 | 12.99962 | 77.81596 | 14924 ft | 335 kts | 340° |
| 2026-04-25 13:46 | 13.02097 | 77.80734 | 14868 ft | 321 kts | 340° |
| 2026-04-25 13:46 | 13.04125 | 77.79913 | 14789 ft | 303 kts | 340° |
| 2026-04-25 13:46 | 13.06062 | 77.79128 | 14748 ft | 301 kts | 340° |
| 2026-04-25 13:47 | 13.07988 | 77.78350 | 14646 ft | 288 kts | 340° |
| 2026-04-25 13:47 | 13.09806 | 77.77338 | 14307 ft | 307 kts | 319° |
| 2026-04-25 13:47 | 13.10976 | 77.75547 | 13934 ft | 309 kts | 288° |
| 2026-04-25 13:47 | 13.11197 | 77.73376 | 13619 ft | 311 kts | 267° |
| 2026-04-25 13:48 | 13.10981 | 77.71168 | 13268 ft | 312 kts | 265° |
| 2026-04-25 13:48 | 13.10773 | 77.68954 | 12913 ft | 311 kts | 267° |
| 2026-04-25 13:48 | 13.10661 | 77.66730 | 12557 ft | 309 kts | 270° |
| 2026-04-25 13:48 | 13.10620 | 77.64543 | 12218 ft | 305 kts | 271° |
| 2026-04-25 13:49 | 13.10613 | 77.62392 | 11876 ft | 302 kts | 272° |
| 2026-04-25 13:49 | 13.10618 | 77.60254 | 11536 ft | 299 kts | 272° |
| 2026-04-25 13:49 | 13.10629 | 77.58131 | 11200 ft | 297 kts | 272° |
| 2026-04-25 13:49 | 13.10642 | 77.56026 | 10863 ft | 295 kts | 272° |
| 2026-04-25 13:50 | 13.10655 | 77.53938 | 10533 ft | 293 kts | 272° |
| 2026-04-25 13:50 | 13.10666 | 77.51865 | 10208 ft | 291 kts | 272° |
| 2026-04-25 13:50 | 13.10677 | 77.49796 | 9872 ft | 289 kts | 272° |
| 2026-04-25 13:50 | 13.10689 | 77.47736 | 9520 ft | 288 kts | 272° |
| 2026-04-25 13:51 | 13.10699 | 77.45697 | 9185 ft | 287 kts | 271° |
| 2026-04-25 13:51 | 13.10783 | 77.43667 | 8823 ft | 285 kts | 283° |
| 2026-04-25 13:51 | 13.11651 | 77.41884 | 8415 ft | 278 kts | 319° |
| 2026-04-25 13:51 | 13.13283 | 77.40974 | 8098 ft | 263 kts | 355° |
| 2026-04-25 13:52 | 13.14992 | 77.41207 | 7994 ft | 241 kts | 26° |
| 2026-04-25 13:52 | 13.16470 | 77.41949 | 7912 ft | 228 kts | 29° |
| 2026-04-25 13:52 | 13.17900 | 77.42633 | 7784 ft | 227 kts | 26° |
| 2026-04-25 13:52 | 13.19378 | 77.43230 | 7611 ft | 227 kts | 23° |
| 2026-04-25 13:53 | 13.20798 | 77.43858 | 7332 ft | 221 kts | 36° |
| 2026-04-25 13:53 | 13.21640 | 77.45110 | 6887 ft | 213 kts | 78° |
| 2026-04-25 13:53 | 13.21492 | 77.46550 | 6766 ft | 197 kts | 104° |
| 2026-04-25 13:53 | 13.21158 | 77.47857 | 6662 ft | 180 kts | 100° |
| 2026-04-25 13:54 | 13.20982 | 77.49059 | 6416 ft | 162 kts | 95° |
| 2026-04-25 13:54 | 13.20917 | 77.50198 | 6214 ft | 158 kts | 91° |
| 2026-04-25 13:54 | 13.20890 | 77.51317 | 6026 ft | 158 kts | 91° |
| 2026-04-25 13:54 | 13.20873 | 77.52441 | 5829 ft | 157 kts | 91° |
| 2026-04-25 13:55 | 13.20860 | 77.53552 | 5639 ft | 156 kts | 91° |
| 2026-04-25 13:55 | 13.20847 | 77.54677 | 5449 ft | 156 kts | 91° |
| 2026-04-25 13:55 | 13.20836 | 77.55778 | 5256 ft | 155 kts | 91° |
| 2026-04-25 13:55 | 13.20826 | 77.56887 | 5067 ft | 155 kts | 91° |
| 2026-04-25 13:56 | 13.20815 | 77.57980 | 4879 ft | 154 kts | 91° |
| 2026-04-25 13:56 | 13.20805 | 77.59093 | 4688 ft | 154 kts | 91° |
| 2026-04-25 13:56 | 13.20795 | 77.60177 | 4502 ft | 153 kts | 91° |
| 2026-04-25 13:56 | 13.20785 | 77.61268 | 4318 ft | 153 kts | 91° |
| 2026-04-25 13:57 | 13.20775 | 77.62360 | 4128 ft | 152 kts | 91° |
| 2026-04-25 13:57 | 13.20769 | 77.63084 | 4004 ft | 152 kts | 91° |
| 2026-04-25 13:57 | 13.20763 | 77.64516 | 3705 ft | 151 kts | 92° |
| 2026-04-25 13:57 | 13.20754 | 77.65601 | 3467 ft | 150 kts | 92° |
| 2026-04-25 13:58 | 13.20741 | 77.66658 | 3299 ft | 149 kts | 92° |
| 2026-04-25 13:58 | 13.20727 | 77.67724 | 3149 ft | 152 kts | 92° |
| 2026-04-25 13:58 | 13.20716 | 77.68824 | 3013 ft | 155 kts | 92° |
| 2026-04-25 13:58 | 13.20699 | 77.69827 | 3004 ft | 121 kts | 91° |
| 2026-04-25 13:59 | 13.20697 | 77.70515 | 3003 ft | 71 kts | 90° |
| 2026-04-25 13:59 | 13.20694 | 77.70827 | 3003 ft | 21 kts | 95° |
| 2026-04-25 13:59 | 13.20647 | 77.70969 | 3003 ft | 16 kts | 116° |
| 2026-04-25 13:59 | 13.20612 | 77.71034 | 3003 ft | 10 kts | 119° |
| 2026-04-25 14:00 | 13.20583 | 77.71084 | 3003 ft | 8 kts | 121° |
| 2026-04-25 14:00 | 13.20550 | 77.71138 | 3003 ft | 9 kts | 121° |
| 2026-04-25 14:00 | 13.20520 | 77.71204 | 3003 ft | 10 kts | 96° |
| 2026-04-25 14:00 | 13.20506 | 77.71265 | 3003 ft | 8 kts | 135° |
| 2026-04-25 14:01 | 13.20439 | 77.71276 | 3003 ft | 10 kts | 180° |
| 2026-04-25 14:01 | 13.20359 | 77.71275 | 3003 ft | 12 kts | 180° |
| 2026-04-25 14:01 | 13.20272 | 77.71281 | 3003 ft | 8 kts | 155° |
| 2026-04-25 14:01 | 13.20251 | 77.71333 | 3003 ft | 9 kts | 91° |
| 2026-04-25 14:02 | 13.20250 | 77.71406 | 3003 ft | 10 kts | 90° |
| 2026-04-25 14:02 | 13.20210 | 77.71471 | 3003 ft | 11 kts | 136° |
| 2026-04-25 14:02 | 13.20174 | 77.71546 | 3003 ft | 12 kts | 92° |
| 2026-04-25 14:02 | 13.20174 | 77.71574 | 3003 ft | 11 kts | 89° |
| 2026-04-25 14:03 | 13.20175 | 77.71711 | 3003 ft | 5 kts | 92° |
| 2026-04-25 14:03 | 13.20152 | 77.71734 | 3003 ft | 5 kts | 162° |
| 2026-04-25 14:03 | 13.20107 | 77.71735 | 3003 ft | 7 kts | 182° |
| 2026-04-25 14:03 | 13.20087 | 77.71735 | 3003 ft | 1 kts | 177° |
| 2026-04-25 14:04 | 13.20081 | 77.71735 | 3003 ft | 1 kts | 181° |
| 2026-04-25 14:04 | 13.20077 | 77.71735 | 3003 ft | 0 kts | 181° |